createdAt,value
2023-01-20T00:04:41.941Z,6.03
2023-01-20T00:09:35.470Z,6.60
2023-01-20T00:14:29.151Z,6.60
2023-01-20T00:19:24.525Z,5.63
2023-01-20T00:24:17.973Z,5.97
2023-01-20T00:29:11.915Z,5.70
2023-01-20T00:34:05.529Z,6.30
2023-01-20T00:39:02.241Z,5.97
2023-01-20T00:43:55.644Z,6.37
2023-01-20T00:48:48.997Z,6.37
2023-01-20T00:53:42.630Z,6.30
2023-01-20T00:58:37.487Z,6.20
2023-01-20T01:03:31.343Z,6.73
2023-01-20T01:08:24.654Z,6.87
2023-01-20T01:13:18.109Z,7.37
2023-01-20T01:44:18.349Z,7.63
2023-01-20T02:02:17.216Z,7.83
2023-01-20T02:07:19.607Z,7.77
2023-01-20T02:12:17.908Z,9.37
2023-01-20T02:17:24.118Z,8.83
2023-01-20T02:22:34.823Z,8.60
2023-01-20T02:28:03.265Z,9.27
2023-01-20T02:33:06.111Z,9.30
2023-01-20T02:38:15.953Z,8.93
2023-01-20T02:43:19.324Z,9.63
2023-01-20T02:48:25.526Z,10.17
2023-01-20T02:53:23.603Z,9.93
2023-01-20T02:58:25.024Z,10.20
2023-01-20T03:03:27.742Z,10.37
2023-01-20T03:08:25.399Z,9.83
2023-01-20T03:13:24.893Z,10.00
2023-01-20T03:18:19.624Z,10.50
2023-01-20T03:23:13.203Z,10.37
2023-01-20T03:28:06.777Z,10.70
2023-01-20T03:33:01.969Z,10.47
2023-01-20T03:44:46.429Z,10.40
2023-01-20T03:49:50.077Z,9.53
2023-01-20T03:54:52.046Z,10.50
2023-01-20T03:59:52.233Z,9.77
2023-01-20T04:04:50.063Z,9.87
2023-01-20T04:09:51.034Z,9.50
2023-01-20T04:14:46.011Z,9.03
2023-01-20T04:19:39.576Z,8.70
2023-01-20T04:24:42.342Z,9.37
2023-01-20T04:29:35.821Z,8.50
2023-01-20T04:34:30.932Z,9.20
2023-01-20T04:39:24.321Z,8.90
2023-01-20T04:44:17.831Z,9.57
2023-01-20T04:56:33.292Z,9.27
2023-01-20T05:01:26.817Z,9.23
2023-01-20T05:06:20.337Z,9.70
2023-01-20T05:11:13.794Z,9.60
2023-01-20T05:35:41.960Z,8.70
2023-01-20T05:40:35.523Z,8.37
2023-01-20T05:45:29.430Z,8.70
2023-01-20T05:50:22.863Z,8.27
2023-01-20T05:55:18.203Z,8.53
2023-01-20T06:00:14.120Z,7.77
2023-01-20T06:05:08.980Z,8.17
2023-01-20T06:10:02.693Z,7.83
2023-01-20T06:14:57.565Z,7.70
2023-01-20T06:19:50.879Z,7.47
2023-01-20T06:24:44.248Z,8.30
2023-01-20T06:29:37.685Z,9.57
2023-01-20T06:34:32.544Z,9.77
2023-01-20T06:39:26.080Z,10.30
2023-01-20T06:44:24.687Z,11.30
2023-01-20T07:02:22.458Z,12.83
2023-01-20T07:13:47.148Z,12.30
2023-01-20T07:18:42.192Z,14.57
2023-01-20T07:23:35.633Z,13.60
2023-01-20T07:28:31.110Z,14.27
2023-01-20T07:33:24.704Z,12.77
2023-01-20T07:38:19.524Z,14.10
2023-01-20T07:43:13.044Z,13.03
2023-01-20T07:48:08.011Z,13.77
2023-01-20T07:53:01.530Z,13.43
2023-01-20T07:57:57.314Z,13.07
2023-01-20T08:02:59.866Z,12.30
2023-01-20T08:07:53.894Z,11.00
2023-01-20T08:12:47.253Z,10.80
2023-01-20T08:17:41.998Z,10.03
2023-01-20T08:22:36.348Z,10.07
2023-01-20T08:27:30.027Z,10.10
2023-01-20T08:32:23.620Z,11.07
2023-01-20T08:37:18.601Z,10.73
2023-01-20T08:42:12.000Z,9.27
2023-01-20T08:47:05.472Z,9.93
2023-01-20T08:52:27.568Z,10.23
2023-01-20T08:57:22.347Z,10.37
2023-01-20T09:02:16.069Z,9.20
2023-01-20T09:07:13.178Z,8.93
2023-01-20T09:12:07.519Z,8.57
2023-01-20T09:17:02.868Z,8.83
2023-01-20T09:21:56.722Z,8.67
2023-01-20T09:26:51.019Z,7.90
2023-01-20T09:31:50.213Z,8.27
2023-01-20T09:36:45.137Z,7.97
2023-01-20T09:41:57.566Z,7.80
2023-01-20T09:47:22.645Z,8.20
2023-01-20T09:52:47.249Z,7.53
2023-01-20T09:57:50.033Z,7.87
2023-01-20T10:02:52.256Z,8.20
2023-01-20T10:07:56.758Z,7.90
2023-01-20T10:12:58.884Z,8.70
2023-01-20T10:17:58.866Z,8.67
2023-01-20T10:22:59.505Z,8.87
2023-01-20T10:27:57.531Z,8.87
2023-01-20T10:32:59.909Z,9.00
2023-01-20T10:37:55.906Z,8.23
2023-01-20T10:42:54.510Z,8.73
2023-01-20T10:48:03.880Z,8.17
2023-01-20T10:53:41.156Z,7.77
2023-01-20T10:58:39.057Z,8.97
2023-01-20T11:03:38.328Z,8.70
2023-01-20T11:08:34.999Z,8.20
2023-01-20T11:13:28.477Z,8.20
2023-01-20T11:18:28.074Z,8.83
2023-01-20T11:23:26.843Z,8.13
2023-01-20T11:28:22.125Z,8.40
2023-01-20T11:33:22.582Z,8.17
2023-01-20T11:38:25.137Z,8.83
2023-01-20T11:43:32.973Z,9.40
2023-01-20T11:48:26.371Z,8.37
2023-01-20T11:53:26.604Z,8.27
2023-01-20T11:58:23.233Z,8.73
2023-01-20T12:04:23.342Z,8.50
2023-01-20T12:09:22.396Z,8.60
2023-01-20T12:14:28.665Z,7.37
2023-01-20T12:19:39.187Z,8.60
2023-01-20T12:25:02.127Z,8.43
2023-01-20T12:30:02.813Z,8.33
2023-01-20T12:34:57.693Z,8.80
2023-01-20T12:40:12.076Z,7.97
2023-01-20T12:45:22.518Z,8.63
2023-01-20T12:50:32.937Z,7.50
2023-01-20T13:00:52.291Z,7.87
2023-01-20T13:06:28.168Z,8.10
2023-01-20T13:16:33.344Z,7.80
2023-01-20T13:26:33.958Z,7.67
2023-01-20T13:31:43.315Z,8.00
2023-01-20T13:36:36.818Z,9.17
2023-01-20T13:41:53.029Z,7.90
2023-01-20T13:46:50.968Z,7.77
2023-01-20T13:51:47.107Z,8.87
2023-01-20T13:56:40.554Z,8.10
2023-01-20T14:01:37.280Z,7.73
2023-01-20T14:06:33.235Z,8.03
2023-01-20T14:11:29.269Z,8.50
2023-01-20T14:16:27.764Z,7.87
2023-01-20T14:21:25.708Z,7.77
2023-01-20T14:26:24.952Z,7.87
2023-01-20T14:31:37.678Z,8.07
2023-01-20T14:36:32.600Z,8.03
2023-01-20T14:51:41.459Z,8.03
2023-01-20T14:56:34.946Z,8.27
2023-01-20T15:01:28.449Z,8.13
2023-01-20T15:06:25.451Z,7.63
2023-01-20T15:11:28.991Z,8.30
2023-01-20T15:16:28.472Z,7.90
2023-01-20T15:21:28.840Z,8.30
2023-01-20T15:26:30.995Z,8.50
2023-01-20T15:31:25.110Z,7.57
2023-01-20T15:36:29.161Z,8.13
2023-01-20T15:41:24.363Z,7.30
2023-01-20T15:46:20.134Z,8.63
2023-01-20T15:51:17.541Z,8.30
2023-01-20T15:56:22.762Z,8.40
2023-01-20T16:01:23.900Z,7.50
2023-01-20T22:15:46.227Z,10.30
2023-01-20T22:20:39.595Z,10.13
2023-01-20T22:25:34.610Z,10.40
2023-01-20T22:30:28.077Z,10.70
2023-01-20T22:35:22.865Z,10.80
2023-01-20T22:40:16.751Z,10.90
2023-01-20T22:45:11.957Z,11.17
2023-01-20T22:50:07.940Z,10.30
2023-01-20T22:55:02.688Z,10.33
2023-01-20T22:59:56.102Z,10.70
2023-01-20T23:04:49.392Z,10.00
2023-01-20T23:09:42.685Z,10.77
2023-01-20T23:14:55.250Z,10.83
2023-01-20T23:26:20.441Z,11.10
2023-01-20T23:31:17.831Z,12.40
2023-01-20T23:36:15.687Z,12.20
2023-01-20T23:41:09.059Z,12.13
2023-01-20T23:46:06.024Z,11.20
2023-01-20T23:51:01.984Z,12.57
2023-01-20T23:56:01.454Z,11.53
